<?xml version="1.0" encoding="UTF-8" standalone="no" ?>
<gpx xmlns="http://www.topografix.com/GPX/1/1" xmlns:xsi="http://www.w3.org/2001/XMLSchema-instance" xsi:schemaLocation="http://www.topografix.com/GPX/1/1 http://www.topografix.com/GPX/1/1/gpx.xsd" version="1.1" creator="VisuGPX - https://www.visugpx.com">
  <metadata>
    <name>Ligne 19 Onex Cité - Vernier Village</name>
  </metadata>
  <trk>
    <name><![CDATA[Ligne 19 Onex Cité - Vernier Village_1]]></name>
    <trkseg>
      <trkpt lat="46.18846" lon="6.09988">
        <ele>422.3</ele>
        <time>2020-04-23T21:10:36.000Z</time>
      </trkpt>
      <trkpt lat="46.18788" lon="6.10027">
        <ele>423.3</ele>
        <time>2020-04-23T21:10:48.802Z</time>
      </trkpt>
      <trkpt lat="46.18783" lon="6.1005">
        <ele>424.1</ele>
        <time>2020-04-23T21:10:52.120Z</time>
      </trkpt>
      <trkpt lat="46.18885" lon="6.10169">
        <ele>424.4</ele>
        <time>2020-04-23T21:11:18.275Z</time>
      </trkpt>
      <trkpt lat="46.18907" lon="6.10161">
        <ele>425.3</ele>
        <time>2020-04-23T21:11:22.957Z</time>
      </trkpt>
      <trkpt lat="46.18937" lon="6.10142">
        <ele>423</ele>
        <time>2020-04-23T21:11:29.478Z</time>
      </trkpt>
      <trkpt lat="46.18997" lon="6.101">
        <ele>418.9</ele>
        <time>2020-04-23T21:11:42.775Z</time>
      </trkpt>
      <trkpt lat="46.19072" lon="6.10048">
        <ele>417.9</ele>
        <time>2020-04-23T21:11:59.551Z</time>
      </trkpt>
      <trkpt lat="46.19091" lon="6.10042">
        <ele>417.3</ele>
        <time>2020-04-23T21:12:03.429Z</time>
      </trkpt>
      <trkpt lat="46.19104" lon="6.10045">
        <ele>416.9</ele>
        <time>2020-04-23T21:12:05.922Z</time>
      </trkpt>
      <trkpt lat="46.19114" lon="6.10055">
        <ele>416.8</ele>
        <time>2020-04-23T21:12:08.334Z</time>
      </trkpt>
      <trkpt lat="46.19163" lon="6.10214">
        <ele>424.6</ele>
        <time>2020-04-23T21:12:32.521Z</time>
      </trkpt>
      <trkpt lat="46.19162" lon="6.10229">
        <ele>425.1</ele>
        <time>2020-04-23T21:12:34.528Z</time>
      </trkpt>
      <trkpt lat="46.19171" lon="6.10238">
        <ele>425</ele>
        <time>2020-04-23T21:12:36.837Z</time>
      </trkpt>
      <trkpt lat="46.19226" lon="6.10407">
        <ele>420.6</ele>
        <time>2020-04-23T21:13:02.705Z</time>
      </trkpt>
      <trkpt lat="46.19227" lon="6.10422">
        <ele>420.6</ele>
        <time>2020-04-23T21:13:04.856Z</time>
      </trkpt>
      <trkpt lat="46.19238" lon="6.10435">
        <ele>420.4</ele>
        <time>2020-04-23T21:13:07.597Z</time>
      </trkpt>
      <trkpt lat="46.19287" lon="6.10576">
        <ele>421.5</ele>
        <time>2020-04-23T21:13:29.435Z</time>
      </trkpt>
      <trkpt lat="46.1933" lon="6.10693">
        <ele>421</ele>
        <time>2020-04-23T21:13:47.789Z</time>
      </trkpt>
      <trkpt lat="46.1934" lon="6.10708">
        <ele>420.8</ele>
        <time>2020-04-23T21:13:50.680Z</time>
      </trkpt>
      <trkpt lat="46.19382" lon="6.10822">
        <ele>423.1</ele>
        <time>2020-04-23T21:14:08.615Z</time>
      </trkpt>
      <trkpt lat="46.19384" lon="6.10838">
        <ele>423.3</ele>
        <time>2020-04-23T21:14:10.875Z</time>
      </trkpt>
      <trkpt lat="46.19389" lon="6.10856">
        <ele>422.9</ele>
        <time>2020-04-23T21:14:13.608Z</time>
      </trkpt>
      <trkpt lat="46.19393" lon="6.10875">
        <ele>422.4</ele>
        <time>2020-04-23T21:14:16.242Z</time>
      </trkpt>
      <trkpt lat="46.19393" lon="6.10889">
        <ele>422.2</ele>
        <time>2020-04-23T21:14:18.176Z</time>
      </trkpt>
      <trkpt lat="46.19396" lon="6.109">
        <ele>421.8</ele>
        <time>2020-04-23T21:14:19.905Z</time>
      </trkpt>
      <trkpt lat="46.19408" lon="6.10906">
        <ele>421.5</ele>
        <time>2020-04-23T21:14:22.376Z</time>
      </trkpt>
      <trkpt lat="46.19416" lon="6.10918">
        <ele>421</ele>
        <time>2020-04-23T21:14:24.688Z</time>
      </trkpt>
      <trkpt lat="46.1943" lon="6.10958">
        <ele>419.5</ele>
        <time>2020-04-23T21:14:30.937Z</time>
      </trkpt>
      <trkpt lat="46.19443" lon="6.10998">
        <ele>417.8</ele>
        <time>2020-04-23T21:14:37.120Z</time>
      </trkpt>
      <trkpt lat="46.19455" lon="6.11047">
        <ele>416.6</ele>
        <time>2020-04-23T21:14:44.164Z</time>
      </trkpt>
      <trkpt lat="46.19461" lon="6.1112">
        <ele>416.3</ele>
        <time>2020-04-23T21:14:54.350Z</time>
      </trkpt>
      <trkpt lat="46.19473" lon="6.113">
        <ele>418.4</ele>
        <time>2020-04-23T21:15:19.516Z</time>
      </trkpt>
      <trkpt lat="46.19473" lon="6.11338">
        <ele>418.5</ele>
        <time>2020-04-23T21:15:24.793Z</time>
      </trkpt>
      <trkpt lat="46.19482" lon="6.11367">
        <ele>419.2</ele>
        <time>2020-04-23T21:15:29.155Z</time>
      </trkpt>
      <trkpt lat="46.19497" lon="6.11378">
        <ele>419.2</ele>
        <time>2020-04-23T21:15:32.513Z</time>
      </trkpt>
      <trkpt lat="46.1962" lon="6.11337">
        <ele>418.2</ele>
        <time>2020-04-23T21:15:57.664Z</time>
      </trkpt>
      <trkpt lat="46.19653" lon="6.11328">
        <ele>417.1</ele>
        <time>2020-04-23T21:16:04.485Z</time>
      </trkpt>
      <trkpt lat="46.19676" lon="6.11333">
        <ele>417</ele>
        <time>2020-04-23T21:16:09.079Z</time>
      </trkpt>
      <trkpt lat="46.19683" lon="6.11344">
        <ele>417.1</ele>
        <time>2020-04-23T21:16:11.230Z</time>
      </trkpt>
      <trkpt lat="46.19709" lon="6.11583">
        <ele>424.5</ele>
        <time>2020-04-23T21:16:44.759Z</time>
      </trkpt>
      <trkpt lat="46.19702" lon="6.11604">
        <ele>424.3</ele>
        <time>2020-04-23T21:16:47.884Z</time>
      </trkpt>
      <trkpt lat="46.19686" lon="6.11614">
        <ele>424.7</ele>
        <time>2020-04-23T21:16:51.341Z</time>
      </trkpt>
      <trkpt lat="46.19667" lon="6.1164">
        <ele>425.7</ele>
        <time>2020-04-23T21:16:56.550Z</time>
      </trkpt>
      <trkpt lat="46.19657" lon="6.11664">
        <ele>425.8</ele>
        <time>2020-04-23T21:17:00.489Z</time>
      </trkpt>
      <trkpt lat="46.19652" lon="6.11718">
        <ele>424.1</ele>
        <time>2020-04-23T21:17:08.131Z</time>
      </trkpt>
      <trkpt lat="46.19632" lon="6.12058">
        <ele>420.8</ele>
        <time>2020-04-23T21:17:55.343Z</time>
      </trkpt>
      <trkpt lat="46.19629" lon="6.12085">
        <ele>420.4</ele>
        <time>2020-04-23T21:17:59.180Z</time>
      </trkpt>
      <trkpt lat="46.1962" lon="6.12112">
        <ele>418.8</ele>
        <time>2020-04-23T21:18:03.203Z</time>
      </trkpt>
      <trkpt lat="46.19606" lon="6.12137">
        <ele>417</ele>
        <time>2020-04-23T21:18:07.751Z</time>
      </trkpt>
      <trkpt lat="46.19499" lon="6.12284">
        <ele>415.2</ele>
        <time>2020-04-23T21:18:37.244Z</time>
      </trkpt>
      <trkpt lat="46.19448" lon="6.12355">
        <ele>412.7</ele>
        <time>2020-04-23T21:18:51.464Z</time>
      </trkpt>
      <trkpt lat="46.19425" lon="6.12389">
        <ele>413.6</ele>
        <time>2020-04-23T21:18:58.086Z</time>
      </trkpt>
      <trkpt lat="46.19413" lon="6.1242">
        <ele>413.9</ele>
        <time>2020-04-23T21:19:02.939Z</time>
      </trkpt>
      <trkpt lat="46.1941" lon="6.12444">
        <ele>413.1</ele>
        <time>2020-04-23T21:19:06.365Z</time>
      </trkpt>
      <trkpt lat="46.19412" lon="6.12468">
        <ele>412.2</ele>
        <time>2020-04-23T21:19:09.739Z</time>
      </trkpt>
      <trkpt lat="46.19457" lon="6.12594">
        <ele>406.3</ele>
        <time>2020-04-23T21:19:29.318Z</time>
      </trkpt>
      <trkpt lat="46.19479" lon="6.12635">
        <ele>401.8</ele>
        <time>2020-04-23T21:19:36.528Z</time>
      </trkpt>
      <trkpt lat="46.19501" lon="6.12656">
        <ele>399.4</ele>
        <time>2020-04-23T21:19:41.949Z</time>
      </trkpt>
      <trkpt lat="46.19525" lon="6.12672">
        <ele>396.3</ele>
        <time>2020-04-23T21:19:47.043Z</time>
      </trkpt>
      <trkpt lat="46.19881" lon="6.12783">
        <ele>384.8</ele>
        <time>2020-04-23T21:21:00.089Z</time>
      </trkpt>
      <trkpt lat="46.19898" lon="6.1279">
        <ele>384.3</ele>
        <time>2020-04-23T21:21:03.542Z</time>
      </trkpt>
      <trkpt lat="46.19926" lon="6.12815">
        <ele>381</ele>
        <time>2020-04-23T21:21:10.106Z</time>
      </trkpt>
      <trkpt lat="46.19988" lon="6.12875">
        <ele>374.4</ele>
        <time>2020-04-23T21:21:25.091Z</time>
      </trkpt>
      <trkpt lat="46.19996" lon="6.12909">
        <ele>373.3</ele>
        <time>2020-04-23T21:21:30.050Z</time>
      </trkpt>
      <trkpt lat="46.20042" lon="6.12954">
        <ele>375.2</ele>
        <time>2020-04-23T21:21:41.213Z</time>
      </trkpt>
      <trkpt lat="46.20044" lon="6.12962">
        <ele>375.4</ele>
        <time>2020-04-23T21:21:42.318Z</time>
      </trkpt>
      <trkpt lat="46.20042" lon="6.12975">
        <ele>375.6</ele>
        <time>2020-04-23T21:21:44.213Z</time>
      </trkpt>
      <trkpt lat="46.19998" lon="6.13234">
        <ele>374.8</ele>
        <time>2020-04-23T21:22:21.126Z</time>
      </trkpt>
      <trkpt lat="46.19781" lon="6.13614">
        <ele>382.3</ele>
        <time>2020-04-23T21:23:29.323Z</time>
      </trkpt>
      <trkpt lat="46.19778" lon="6.13623">
        <ele>382.3</ele>
        <time>2020-04-23T21:23:30.687Z</time>
      </trkpt>
      <trkpt lat="46.19778" lon="6.13631">
        <ele>382.3</ele>
        <time>2020-04-23T21:23:31.878Z</time>
      </trkpt>
      <trkpt lat="46.1983" lon="6.13688">
        <ele>380.3</ele>
        <time>2020-04-23T21:23:44.988Z</time>
      </trkpt>
      <trkpt lat="46.19873" lon="6.13717">
        <ele>380.9</ele>
        <time>2020-04-23T21:23:54.534Z</time>
      </trkpt>
      <trkpt lat="46.1995" lon="6.13748">
        <ele>383.1</ele>
        <time>2020-04-23T21:24:10.438Z</time>
      </trkpt>
      <trkpt lat="46.19981" lon="6.13755">
        <ele>382.7</ele>
        <time>2020-04-23T21:24:16.792Z</time>
      </trkpt>
      <trkpt lat="46.20133" lon="6.1378">
        <ele>380.3</ele>
        <time>2020-04-23T21:24:47.378Z</time>
      </trkpt>
      <trkpt lat="46.20136" lon="6.13785">
        <ele>380.3</ele>
        <time>2020-04-23T21:24:48.378Z</time>
      </trkpt>
      <trkpt lat="46.2014" lon="6.13905">
        <ele>382.1</ele>
        <time>2020-04-23T21:25:04.966Z</time>
      </trkpt>
      <trkpt lat="46.20139" lon="6.13946">
        <ele>381.9</ele>
        <time>2020-04-23T21:25:10.618Z</time>
      </trkpt>
      <trkpt lat="46.20131" lon="6.14019">
        <ele>380.8</ele>
        <time>2020-04-23T21:25:20.856Z</time>
      </trkpt>
      <trkpt lat="46.20167" lon="6.14128">
        <ele>382</ele>
        <time>2020-04-23T21:25:37.642Z</time>
      </trkpt>
      <trkpt lat="46.20178" lon="6.14148">
        <ele>382.5</ele>
        <time>2020-04-23T21:25:41.093Z</time>
      </trkpt>
      <trkpt lat="46.20193" lon="6.14191">
        <ele>383.3</ele>
        <time>2020-04-23T21:25:47.873Z</time>
      </trkpt>
      <trkpt lat="46.20202" lon="6.14204">
        <ele>383.7</ele>
        <time>2020-04-23T21:25:50.395Z</time>
      </trkpt>
      <trkpt lat="46.20208" lon="6.14202">
        <ele>384</ele>
        <time>2020-04-23T21:25:51.678Z</time>
      </trkpt>
      <trkpt lat="46.20306" lon="6.14133">
        <ele>385.4</ele>
        <time>2020-04-23T21:26:13.546Z</time>
      </trkpt>
      <trkpt lat="46.20357" lon="6.14125">
        <ele>385</ele>
        <time>2020-04-23T21:26:23.632Z</time>
      </trkpt>
      <trkpt lat="46.20362" lon="6.14129">
        <ele>385.1</ele>
        <time>2020-04-23T21:26:24.930Z</time>
      </trkpt>
      <trkpt lat="46.20371" lon="6.14243">
        <ele>386</ele>
        <time>2020-04-23T21:26:40.899Z</time>
      </trkpt>
      <trkpt lat="46.20378" lon="6.14288">
        <ele>388.3</ele>
        <time>2020-04-23T21:26:47.243Z</time>
      </trkpt>
      <trkpt lat="46.20384" lon="6.14291">
        <ele>388.7</ele>
        <time>2020-04-23T21:26:48.560Z</time>
      </trkpt>
      <trkpt lat="46.20405" lon="6.14284">
        <ele>388.6</ele>
        <time>2020-04-23T21:26:52.816Z</time>
      </trkpt>
      <trkpt lat="46.20416" lon="6.14288">
        <ele>389.1</ele>
        <time>2020-04-23T21:26:54.982Z</time>
      </trkpt>
      <trkpt lat="46.20429" lon="6.14322">
        <ele>390.3</ele>
        <time>2020-04-23T21:27:00.374Z</time>
      </trkpt>
      <trkpt lat="46.20435" lon="6.1433">
        <ele>390.1</ele>
        <time>2020-04-23T21:27:01.950Z</time>
      </trkpt>
      <trkpt lat="46.20447" lon="6.14324">
        <ele>388.1</ele>
        <time>2020-04-23T21:27:04.464Z</time>
      </trkpt>
      <trkpt lat="46.20531" lon="6.14283">
        <ele>377.9</ele>
        <time>2020-04-23T21:27:22.252Z</time>
      </trkpt>
      <trkpt lat="46.20556" lon="6.14305">
        <ele>377.7</ele>
        <time>2020-04-23T21:27:28.242Z</time>
      </trkpt>
      <trkpt lat="46.20579" lon="6.14294">
        <ele>376.3</ele>
        <time>2020-04-23T21:27:32.966Z</time>
      </trkpt>
      <trkpt lat="46.20711" lon="6.14206">
        <ele>387.7</ele>
        <time>2020-04-23T21:28:02.091Z</time>
      </trkpt>
      <trkpt lat="46.20819" lon="6.14256">
        <ele>392.6</ele>
        <time>2020-04-23T21:28:24.757Z</time>
      </trkpt>
      <trkpt lat="46.20831" lon="6.14254">
        <ele>392.8</ele>
        <time>2020-04-23T21:28:27.219Z</time>
      </trkpt>
      <trkpt lat="46.20837" lon="6.14246">
        <ele>392.7</ele>
        <time>2020-04-23T21:28:28.849Z</time>
      </trkpt>
      <trkpt lat="46.20843" lon="6.14231">
        <ele>392</ele>
        <time>2020-04-23T21:28:31.310Z</time>
      </trkpt>
      <trkpt lat="46.20859" lon="6.14105">
        <ele>389.3</ele>
        <time>2020-04-23T21:28:49.012Z</time>
      </trkpt>
      <trkpt lat="46.20864" lon="6.14074">
        <ele>388.9</ele>
        <time>2020-04-23T21:28:53.373Z</time>
      </trkpt>
      <trkpt lat="46.20874" lon="6.14057">
        <ele>388.8</ele>
        <time>2020-04-23T21:28:56.541Z</time>
      </trkpt>
      <trkpt lat="46.20898" lon="6.14001">
        <ele>388.8</ele>
        <time>2020-04-23T21:29:05.654Z</time>
      </trkpt>
      <trkpt lat="46.20902" lon="6.13986">
        <ele>389</ele>
        <time>2020-04-23T21:29:07.849Z</time>
      </trkpt>
      <trkpt lat="46.20925" lon="6.13946">
        <ele>390.2</ele>
        <time>2020-04-23T21:29:15.044Z</time>
      </trkpt>
      <trkpt lat="46.20934" lon="6.13922">
        <ele>391.3</ele>
        <time>2020-04-23T21:29:18.768Z</time>
      </trkpt>
      <trkpt lat="46.20932" lon="6.13905">
        <ele>392.1</ele>
        <time>2020-04-23T21:29:21.090Z</time>
      </trkpt>
      <trkpt lat="46.20839" lon="6.13511">
        <ele>410.2</ele>
        <time>2020-04-23T21:30:18.846Z</time>
      </trkpt>
      <trkpt lat="46.20838" lon="6.13492">
        <ele>411</ele>
        <time>2020-04-23T21:30:21.382Z</time>
      </trkpt>
      <trkpt lat="46.20879" lon="6.13312">
        <ele>414</ele>
        <time>2020-04-23T21:30:47.699Z</time>
      </trkpt>
      <trkpt lat="46.20886" lon="6.13242">
        <ele>415.4</ele>
        <time>2020-04-23T21:30:57.474Z</time>
      </trkpt>
      <trkpt lat="46.20885" lon="6.13195">
        <ele>416.3</ele>
        <time>2020-04-23T21:31:04.014Z</time>
      </trkpt>
      <trkpt lat="46.2085" lon="6.12861">
        <ele>415.1</ele>
        <time>2020-04-23T21:31:50.778Z</time>
      </trkpt>
      <trkpt lat="46.2084" lon="6.12713">
        <ele>414.5</ele>
        <time>2020-04-23T21:32:11.310Z</time>
      </trkpt>
      <trkpt lat="46.20834" lon="6.12655">
        <ele>415.3</ele>
        <time>2020-04-23T21:32:19.402Z</time>
      </trkpt>
      <trkpt lat="46.20842" lon="6.12566">
        <ele>417.4</ele>
        <time>2020-04-23T21:32:31.807Z</time>
      </trkpt>
      <trkpt lat="46.2096" lon="6.12032">
        <ele>419.1</ele>
        <time>2020-04-23T21:33:49.516Z</time>
      </trkpt>
      <trkpt lat="46.21046" lon="6.11622">
        <ele>422.1</ele>
        <time>2020-04-23T21:34:48.856Z</time>
      </trkpt>
      <trkpt lat="46.21088" lon="6.11476">
        <ele>430.1</ele>
        <time>2020-04-23T21:35:10.769Z</time>
      </trkpt>
      <trkpt lat="46.21111" lon="6.11406">
        <ele>430</ele>
        <time>2020-04-23T21:35:21.502Z</time>
      </trkpt>
      <trkpt lat="46.21121" lon="6.11357">
        <ele>428.2</ele>
        <time>2020-04-23T21:35:28.621Z</time>
      </trkpt>
      <trkpt lat="46.21126" lon="6.11299">
        <ele>426.5</ele>
        <time>2020-04-23T21:35:36.659Z</time>
      </trkpt>
      <trkpt lat="46.21123" lon="6.1119">
        <ele>426</ele>
        <time>2020-04-23T21:35:51.834Z</time>
      </trkpt>
      <trkpt lat="46.21128" lon="6.1114">
        <ele>426.1</ele>
        <time>2020-04-23T21:35:58.811Z</time>
      </trkpt>
      <trkpt lat="46.21139" lon="6.11094">
        <ele>425.6</ele>
        <time>2020-04-23T21:36:05.559Z</time>
      </trkpt>
      <trkpt lat="46.21163" lon="6.11022">
        <ele>424.5</ele>
        <time>2020-04-23T21:36:16.628Z</time>
      </trkpt>
      <trkpt lat="46.21168" lon="6.10987">
        <ele>424.6</ele>
        <time>2020-04-23T21:36:21.568Z</time>
      </trkpt>
      <trkpt lat="46.21166" lon="6.10967">
        <ele>425.6</ele>
        <time>2020-04-23T21:36:24.342Z</time>
      </trkpt>
      <trkpt lat="46.21155" lon="6.10931">
        <ele>426.9</ele>
        <time>2020-04-23T21:36:29.835Z</time>
      </trkpt>
      <trkpt lat="46.21141" lon="6.10874">
        <ele>425.9</ele>
        <time>2020-04-23T21:36:38.227Z</time>
      </trkpt>
      <trkpt lat="46.21147" lon="6.10821">
        <ele>425</ele>
        <time>2020-04-23T21:36:45.678Z</time>
      </trkpt>
      <trkpt lat="46.21156" lon="6.10769">
        <ele>423.7</ele>
        <time>2020-04-23T21:36:53.155Z</time>
      </trkpt>
      <trkpt lat="46.21226" lon="6.10535">
        <ele>422.2</ele>
        <time>2020-04-23T21:37:28.364Z</time>
      </trkpt>
      <trkpt lat="46.21242" lon="6.10499">
        <ele>420.9</ele>
        <time>2020-04-23T21:37:34.239Z</time>
      </trkpt>
      <trkpt lat="46.21261" lon="6.10462">
        <ele>420.1</ele>
        <time>2020-04-23T21:37:40.674Z</time>
      </trkpt>
      <trkpt lat="46.21502" lon="6.10109">
        <ele>409.4</ele>
        <time>2020-04-23T21:38:49.373Z</time>
      </trkpt>
      <trkpt lat="46.2159" lon="6.09976">
        <ele>405.1</ele>
        <time>2020-04-23T21:39:14.762Z</time>
      </trkpt>
      <trkpt lat="46.21653" lon="6.09903">
        <ele>410.3</ele>
        <time>2020-04-23T21:39:30.994Z</time>
      </trkpt>
      <trkpt lat="46.21707" lon="6.09861">
        <ele>411.4</ele>
        <time>2020-04-23T21:39:43.232Z</time>
      </trkpt>
      <trkpt lat="46.21777" lon="6.09768">
        <ele>404.7</ele>
        <time>2020-04-23T21:40:02.322Z</time>
      </trkpt>
      <trkpt lat="46.21798" lon="6.09728">
        <ele>407.6</ele>
        <time>2020-04-23T21:40:09.280Z</time>
      </trkpt>
      <trkpt lat="46.21843" lon="6.09636">
        <ele>415.4</ele>
        <time>2020-04-23T21:40:24.818Z</time>
      </trkpt>
      <trkpt lat="46.21867" lon="6.09568">
        <ele>417.7</ele>
        <time>2020-04-23T21:40:35.417Z</time>
      </trkpt>
      <trkpt lat="46.21882" lon="6.09528">
        <ele>419</ele>
        <time>2020-04-23T21:40:41.666Z</time>
      </trkpt>
      <trkpt lat="46.21903" lon="6.09422">
        <ele>422.5</ele>
        <time>2020-04-23T21:40:56.922Z</time>
      </trkpt>
      <trkpt lat="46.21903" lon="6.09403">
        <ele>423</ele>
        <time>2020-04-23T21:40:59.596Z</time>
      </trkpt>
      <trkpt lat="46.21918" lon="6.09325">
        <ele>425.6</ele>
        <time>2020-04-23T21:41:10.790Z</time>
      </trkpt>
      <trkpt lat="46.21912" lon="6.09307">
        <ele>426.8</ele>
        <time>2020-04-23T21:41:13.648Z</time>
      </trkpt>
      <trkpt lat="46.21908" lon="6.0928">
        <ele>428.6</ele>
        <time>2020-04-23T21:41:17.422Z</time>
      </trkpt>
      <trkpt lat="46.21904" lon="6.09253">
        <ele>430.4</ele>
        <time>2020-04-23T21:41:21.314Z</time>
      </trkpt>
      <trkpt lat="46.21892" lon="6.09138">
        <ele>433</ele>
        <time>2020-04-23T21:41:37.326Z</time>
      </trkpt>
      <trkpt lat="46.21889" lon="6.09112">
        <ele>432.8</ele>
        <time>2020-04-23T21:41:41.029Z</time>
      </trkpt>
      <trkpt lat="46.21858" lon="6.08996">
        <ele>434.9</ele>
        <time>2020-04-23T21:41:58.246Z</time>
      </trkpt>
      <trkpt lat="46.21834" lon="6.08933">
        <ele>434.8</ele>
        <time>2020-04-23T21:42:08.118Z</time>
      </trkpt>
      <trkpt lat="46.21819" lon="6.08902">
        <ele>435.2</ele>
        <time>2020-04-23T21:42:13.475Z</time>
      </trkpt>
      <trkpt lat="46.21801" lon="6.08877">
        <ele>435.9</ele>
        <time>2020-04-23T21:42:18.466Z</time>
      </trkpt>
      <trkpt lat="46.21743" lon="6.08803">
        <ele>437.8</ele>
        <time>2020-04-23T21:42:33.884Z</time>
      </trkpt>
      <trkpt lat="46.21728" lon="6.08773">
        <ele>436.8</ele>
        <time>2020-04-23T21:42:38.997Z</time>
      </trkpt>
      <trkpt lat="46.21671" lon="6.08697">
        <ele>436.3</ele>
        <time>2020-04-23T21:42:54.559Z</time>
      </trkpt>
      <trkpt lat="46.21654" lon="6.08664">
        <ele>438.2</ele>
        <time>2020-04-23T21:43:00.280Z</time>
      </trkpt>
      <trkpt lat="46.21637" lon="6.0864">
        <ele>438.1</ele>
        <time>2020-04-23T21:43:05.061Z</time>
      </trkpt>
      <trkpt lat="46.2163" lon="6.08617">
        <ele>438.9</ele>
        <time>2020-04-23T21:43:08.524Z</time>
      </trkpt>
      <trkpt lat="46.21632" lon="6.08603">
        <ele>439.6</ele>
        <time>2020-04-23T21:43:10.418Z</time>
      </trkpt>
      <trkpt lat="46.21643" lon="6.08583">
        <ele>440.7</ele>
        <time>2020-04-23T21:43:14.004Z</time>
      </trkpt>
      <trkpt lat="46.21677" lon="6.08533">
        <ele>442</ele>
        <time>2020-04-23T21:43:23.672Z</time>
      </trkpt>
      <trkpt lat="46.21695" lon="6.08492">
        <ele>442.2</ele>
        <time>2020-04-23T21:43:30.453Z</time>
      </trkpt>
      <trkpt lat="46.21704" lon="6.08453">
        <ele>442.8</ele>
        <time>2020-04-23T21:43:36.091Z</time>
      </trkpt>
      <trkpt lat="46.21705" lon="6.08434">
        <ele>443.2</ele>
        <time>2020-04-23T21:43:38.770Z</time>
      </trkpt>
      <trkpt lat="46.21701" lon="6.08416">
        <ele>443.8</ele>
        <time>2020-04-23T21:43:41.383Z</time>
      </trkpt>
      <trkpt lat="46.21655" lon="6.08348">
        <ele>443.5</ele>
        <time>2020-04-23T21:43:54.512Z</time>
      </trkpt>
      <trkpt lat="46.21594" lon="6.08264">
        <ele>444</ele>
        <time>2020-04-23T21:44:11.382Z</time>
      </trkpt>
      <trkpt lat="46.21559" lon="6.08224">
        <ele>443.6</ele>
        <time>2020-04-23T21:44:20.421Z</time>
      </trkpt>
      <trkpt lat="46.21464" lon="6.08119">
        <ele>443.1</ele>
        <time>2020-04-23T21:44:44.182Z</time>
      </trkpt>
      <trkpt lat="46.21387" lon="6.08033">
        <ele>442.9</ele>
        <time>2020-04-23T21:45:03.679Z</time>
      </trkpt>
      <trkpt lat="46.21272" lon="6.07899">
        <ele>440.6</ele>
        <time>2020-04-23T21:45:33.317Z</time>
      </trkpt>
      <trkpt lat="46.21264" lon="6.07886">
        <ele>440.3</ele>
        <time>2020-04-23T21:45:35.638Z</time>
      </trkpt>
      <trkpt lat="46.21258" lon="6.07872">
        <ele>440</ele>
        <time>2020-04-23T21:45:38.049Z</time>
      </trkpt>
      <trkpt lat="46.2125" lon="6.07864">
        <ele>439.7</ele>
        <time>2020-04-23T21:45:39.906Z</time>
      </trkpt>
      <trkpt lat="46.21244" lon="6.07859">
        <ele>439.4</ele>
        <time>2020-04-23T21:45:41.371Z</time>
      </trkpt>
      <trkpt lat="46.21237" lon="6.07861">
        <ele>439.2</ele>
        <time>2020-04-23T21:45:42.831Z</time>
      </trkpt>
      <trkpt lat="46.21234" lon="6.07869">
        <ele>439.3</ele>
        <time>2020-04-23T21:45:43.994Z</time>
      </trkpt>
      <trkpt lat="46.21234" lon="6.07878">
        <ele>439.5</ele>
        <time>2020-04-23T21:45:45.333Z</time>
      </trkpt>
      <trkpt lat="46.21244" lon="6.07893">
        <ele>440.2</ele>
        <time>2020-04-23T21:45:48.118Z</time>
      </trkpt>
      <trkpt lat="46.21274" lon="6.07926">
        <ele>441.3</ele>
        <time>2020-04-23T21:45:55.697Z</time>
      </trkpt>
    </trkseg>
  </trk>
</gpx>